sensor_id;sensor_type;location;lat;lon;timestamp;pressure;altitude;pressure_sealevel;temperature;humidity
17309;BME280;8772;42.804;23.426;2023-04-06T00:00:16;74654.97;;;-140.58;100.00
17309;BME280;8772;42.804;23.426;2023-04-06T00:02:44;74644.69;;;-140.58;99.83
17309;BME280;8772;42.804;23.426;2023-04-06T00:05:11;74644.69;;;-140.58;100.00
17309;BME280;8772;42.804;23.426;2023-04-06T00:07:38;74638.53;;;-140.58;100.00
17309;BME280;8772;42.804;23.426;2023-04-06T00:10:06;74636.50;;;-140.58;100.00
17309;BME280;8772;42.804;23.426;2023-04-06T00:12:33;74642.66;;;-140.58;100.00
17309;BME280;8772;42.804;23.426;2023-04-06T00:15:01;74638.53;;;-140.58;100.00
17309;BME280;8772;42.804;23.426;2023-04-06T00:17:30;74638.53;;;-140.58;100.00
17309;BME280;8772;42.804;23.426;2023-04-06T00:19:58;74636.50;;;-140.58;100.00
17309;BME280;8772;42.804;23.426;2023-04-06T00:22:25;74636.50;;;-140.58;99.78
17309;BME280;8772;42.804;23.426;2023-04-06T00:24:52;74646.75;;;-140.58;100.00
17309;BME280;8772;42.804;23.426;2023-04-06T00:27:19;74630.34;;;-140.58;100.00
17309;BME280;8772;42.804;23.426;2023-04-06T00:29:46;74626.22;;;-140.58;100.00
17309;BME280;8772;42.804;23.426;2023-04-06T00:32:13;74630.34;;;-140.58;100.00
17309;BME280;8772;42.804;23.426;2023-04-06T00:34:40;74613.91;;;-140.58;100.00
17309;BME280;8772;42.804;23.426;2023-04-06T00:37:08;74622.13;;;-140.58;100.00
17309;BME280;8772;42.804;23.426;2023-04-06T00:39:35;74622.13;;;-140.58;100.00
17309;BME280;8772;42.804;23.426;2023-04-06T00:42:10;74618.03;;;-140.58;100.00
17309;BME280;8772;42.804;23.426;2023-04-06T00:44:38;74613.91;;;-140.58;100.00
17309;BME280;8772;42.804;23.426;2023-04-06T00:47:05;74613.91;;;-140.58;100.00
17309;BME280;8772;42.804;23.426;2023-04-06T00:49:32;74607.75;;;-140.58;100.00
17309;BME280;8772;42.804;23.426;2023-04-06T00:51:59;74605.72;;;-140.58;100.00
17309;BME280;8772;42.804;23.426;2023-04-06T00:54:28;74597.50;;;-140.58;100.00
17309;BME280;8772;42.804;23.426;2023-04-06T00:56:55;74605.72;;;-140.58;100.00
17309;BME280;8772;42.804;23.426;2023-04-06T00:59:23;74605.72;;;-140.58;100.00
17309;BME280;8772;42.804;23.426;2023-04-06T01:01:50;74597.50;;;-140.58;100.00
17309;BME280;8772;42.804;23.426;2023-04-06T01:07:38;74605.72;;;-140.58;100.00
17309;BME280;8772;42.804;23.426;2023-04-06T01:10:07;74599.56;;;-140.58;100.00
17309;BME280;8772;42.804;23.426;2023-04-06T01:12:35;74597.50;;;-140.58;100.00
17309;BME280;8772;42.804;23.426;2023-04-06T01:15:03;74589.28;;;-140.58;100.00
17309;BME280;8772;42.804;23.426;2023-04-06T01:17:31;74597.50;;;-140.58;100.00
17309;BME280;8772;42.804;23.426;2023-04-06T01:19:58;74589.28;;;-140.58;100.00
17309;BME280;8772;42.804;23.426;2023-04-06T01:22:26;74585.19;;;-140.58;100.00
17309;BME280;8772;42.804;23.426;2023-04-06T01:24:53;74589.28;;;-140.58;100.00
17309;BME280;8772;42.804;23.426;2023-04-06T01:27:20;74574.94;;;-140.58;100.00
17309;BME280;8772;42.804;23.426;2023-04-06T01:29:47;74576.97;;;-140.58;100.00
17309;BME280;8772;42.804;23.426;2023-04-06T01:32:14;74572.88;;;-140.58;100.00
17309;BME280;8772;42.804;23.426;2023-04-06T01:34:41;74585.19;;;-140.58;100.00
17309;BME280;8772;42.804;23.426;2023-04-06T01:37:08;74579.03;;;-140.58;100.00
17309;BME280;8772;42.804;23.426;2023-04-06T01:39:37;74572.88;;;-140.58;100.00
17309;BME280;8772;42.804;23.426;2023-04-06T01:42:04;74579.03;;;-140.58;100.00
17309;BME280;8772;42.804;23.426;2023-04-06T01:44:31;74572.88;;;-140.58;100.00
17309;BME280;8772;42.804;23.426;2023-04-06T01:46:58;74564.66;;;-140.58;100.00
17309;BME280;8772;42.804;23.426;2023-04-06T01:49:25;74564.66;;;-140.58;100.00
17309;BME280;8772;42.804;23.426;2023-04-06T01:51:52;74560.56;;;-140.58;100.00
17309;BME280;8772;42.804;23.426;2023-04-06T01:54:19;74556.47;;;-140.58;100.00
17309;BME280;8772;42.804;23.426;2023-04-06T01:56:48;74556.47;;;-140.58;100.00
17309;BME280;8772;42.804;23.426;2023-04-06T01:59:16;74564.66;;;-140.58;100.00
17309;BME280;8772;42.804;23.426;2023-04-06T02:01:43;74564.66;;;-140.58;100.00
17309;BME280;8772;42.804;23.426;2023-04-06T02:04:11;74568.78;;;-140.58;100.00
17309;BME280;8772;42.804;23.426;2023-04-06T02:06:39;74562.63;;;-140.58;100.00
17309;BME280;8772;42.804;23.426;2023-04-06T02:09:05;74552.34;;;-140.58;100.00
17309;BME280;8772;42.804;23.426;2023-04-06T02:11:32;74554.41;;;-140.58;100.00
17309;BME280;8772;42.804;23.426;2023-04-06T02:14:01;74548.25;;;-140.58;100.00
17309;BME280;8772;42.804;23.426;2023-04-06T02:16:28;74546.22;;;-140.58;100.00
17309;BME280;8772;42.804;23.426;2023-04-06T02:18:55;74560.56;;;-140.58;100.00
17309;BME280;8772;42.804;23.426;2023-04-06T02:21:22;74560.56;;;-140.58;100.00
17309;BME280;8772;42.804;23.426;2023-04-06T02:23:49;74568.78;;;-140.58;100.00
17309;BME280;8772;42.804;23.426;2023-04-06T02:26:17;74568.78;;;-140.58;100.00
17309;BME280;8772;42.804;23.426;2023-04-06T02:28:43;74581.09;;;-140.58;100.00
17309;BME280;8772;42.804;23.426;2023-04-06T02:31:12;74585.19;;;-140.58;100.00
17309;BME280;8772;42.804;23.426;2023-04-06T02:33:40;74581.09;;;-140.58;100.00
17309;BME280;8772;42.804;23.426;2023-04-06T02:36:07;74585.19;;;-140.58;100.00
17309;BME280;8772;42.804;23.426;2023-04-06T02:38:34;74581.09;;;-140.58;100.00
17309;BME280;8772;42.804;23.426;2023-04-06T02:41:01;74585.19;;;-140.58;100.00
17309;BME280;8772;42.804;23.426;2023-04-06T02:43:28;74576.97;;;-140.58;100.00
17309;BME280;8772;42.804;23.426;2023-04-06T02:45:55;74576.97;;;-140.58;100.00
17309;BME280;8772;42.804;23.426;2023-04-06T02:48:24;74576.97;;;-140.58;100.00
17309;BME280;8772;42.804;23.426;2023-04-06T02:50:51;74589.28;;;-140.58;100.00
17309;BME280;8772;42.804;23.426;2023-04-06T02:53:18;74585.19;;;-140.58;100.00
17309;BME280;8772;42.804;23.426;2023-04-06T02:55:44;74581.09;;;-140.58;100.00
17309;BME280;8772;42.804;23.426;2023-04-06T02:58:11;74572.88;;;-140.58;100.00
17309;BME280;8772;42.804;23.426;2023-04-06T03:00:38;74564.66;;;-140.58;100.00
17309;BME280;8772;42.804;23.426;2023-04-06T03:03:05;74576.97;;;-140.58;100.00
17309;BME280;8772;42.804;23.426;2023-04-06T03:05:34;74581.09;;;-140.58;100.00
17309;BME280;8772;42.804;23.426;2023-04-06T03:08:01;74566.72;;;-140.58;100.00
17309;BME280;8772;42.804;23.426;2023-04-06T03:10:28;74572.88;;;-140.58;100.00
17309;BME280;8772;42.804;23.426;2023-04-06T03:12:55;74572.88;;;-140.58;100.00
17309;BME280;8772;42.804;23.426;2023-04-06T03:15:22;74576.97;;;-140.58;100.00
17309;BME280;8772;42.804;23.426;2023-04-06T03:17:49;74562.63;;;-140.58;100.00
17309;BME280;8772;42.804;23.426;2023-04-06T03:20:16;74572.88;;;-140.58;100.00
17309;BME280;8772;42.804;23.426;2023-04-06T03:22:44;74568.78;;;-140.58;100.00
17309;BME280;8772;42.804;23.426;2023-04-06T03:25:11;74581.09;;;-140.58;100.00
17309;BME280;8772;42.804;23.426;2023-04-06T03:27:38;74564.66;;;-140.58;100.00
17309;BME280;8772;42.804;23.426;2023-04-06T03:30:06;74572.88;;;-140.58;100.00
17309;BME280;8772;42.804;23.426;2023-04-06T03:32:33;74562.63;;;-140.58;100.00
17309;BME280;8772;42.804;23.426;2023-04-06T03:35:00;74562.63;;;-140.58;100.00
17309;BME280;8772;42.804;23.426;2023-04-06T03:37:27;74564.66;;;-140.58;100.00
17309;BME280;8772;42.804;23.426;2023-04-06T03:39:56;74572.88;;;-140.58;100.00
17309;BME280;8772;42.804;23.426;2023-04-06T03:42:23;74576.97;;;-140.58;100.00
17309;BME280;8772;42.804;23.426;2023-04-06T03:44:50;74568.78;;;-140.58;100.00
17309;BME280;8772;42.804;23.426;2023-04-06T03:47:17;74568.78;;;-140.58;100.00
17309;BME280;8772;42.804;23.426;2023-04-06T03:49:44;74581.09;;;-140.58;100.00
17309;BME280;8772;42.804;23.426;2023-04-06T03:52:11;74574.94;;;-140.58;100.00
17309;BME280;8772;42.804;23.426;2023-04-06T03:54:38;74576.97;;;-140.58;100.00
17309;BME280;8772;42.804;23.426;2023-04-06T03:57:06;74576.97;;;-140.58;100.00
17309;BME280;8772;42.804;23.426;2023-04-06T03:59:33;74576.97;;;-140.58;100.00
17309;BME280;8772;42.804;23.426;2023-04-06T04:02:00;74576.97;;;-140.58;100.00
17309;BME280;8772;42.804;23.426;2023-04-06T04:04:27;74572.88;;;-140.58;100.00
17309;BME280;8772;42.804;23.426;2023-04-06T04:06:54;74572.88;;;-140.58;100.00
17309;BME280;8772;42.804;23.426;2023-04-06T04:09:21;74576.97;;;-140.58;100.00
17309;BME280;8772;42.804;23.426;2023-04-06T04:11:48;74585.19;;;-140.58;100.00
17309;BME280;8772;42.804;23.426;2023-04-06T04:14:16;74576.97;;;-140.58;100.00
17309;BME280;8772;42.804;23.426;2023-04-06T04:16:43;74581.09;;;-140.58;100.00
17309;BME280;8772;42.804;23.426;2023-04-06T04:19:10;74579.03;;;-140.58;100.00
17309;BME280;8772;42.804;23.426;2023-04-06T04:21:42;74572.88;;;-140.58;100.00
17309;BME280;8772;42.804;23.426;2023-04-06T04:24:10;74568.78;;;-140.58;100.00
17309;BME280;8772;42.804;23.426;2023-04-06T04:26:37;74576.97;;;-140.58;100.00
17309;BME280;8772;42.804;23.426;2023-04-06T04:29:05;74585.19;;;-140.58;100.00
17309;BME280;8772;42.804;23.426;2023-04-06T04:31:33;74576.97;;;-140.58;100.00
17309;BME280;8772;42.804;23.426;2023-04-06T04:34:00;74572.88;;;-140.58;100.00
17309;BME280;8772;42.804;23.426;2023-04-06T04:36:29;74568.78;;;-140.58;100.00
17309;BME280;8772;42.804;23.426;2023-04-06T04:38:56;74572.88;;;-140.58;100.00
17309;BME280;8772;42.804;23.426;2023-04-06T04:41:22;74570.81;;;-140.58;100.00
17309;BME280;8772;42.804;23.426;2023-04-06T04:43:49;74564.66;;;-140.58;100.00
17309;BME280;8772;42.804;23.426;2023-04-06T04:46:16;74560.56;;;-140.58;100.00
17309;BME280;8772;42.804;23.426;2023-04-06T04:48:45;74558.53;;;-140.58;100.00
17309;BME280;8772;42.804;23.426;2023-04-06T04:51:11;74552.34;;;-140.58;100.00
17309;BME280;8772;42.804;23.426;2023-04-06T04:53:38;74548.25;;;-140.58;100.00
17309;BME280;8772;42.804;23.426;2023-04-06T04:56:05;74540.06;;;-140.58;100.00
17309;BME280;8772;42.804;23.426;2023-04-06T04:58:32;74538.00;;;-140.58;100.00
17309;BME280;8772;42.804;23.426;2023-04-06T05:00:59;74540.06;;;-140.58;100.00
17309;BME280;8772;42.804;23.426;2023-04-06T05:03:26;74546.22;;;-140.58;100.00
17309;BME280;8772;42.804;23.426;2023-04-06T05:05:55;74548.25;;;-140.58;100.00
17309;BME280;8772;42.804;23.426;2023-04-06T05:08:22;74546.22;;;-140.58;100.00
17309;BME280;8772;42.804;23.426;2023-04-06T05:10:49;74552.34;;;-140.58;100.00
17309;BME280;8772;42.804;23.426;2023-04-06T05:13:16;74554.41;;;-140.58;100.00
17309;BME280;8772;42.804;23.426;2023-04-06T05:15:43;74544.16;;;-140.58;100.00
17309;BME280;8772;42.804;23.426;2023-04-06T05:18:10;74540.06;;;-140.58;100.00
17309;BME280;8772;42.804;23.426;2023-04-06T05:20:38;74542.09;;;-140.58;100.00
17309;BME280;8772;42.804;23.426;2023-04-06T05:23:06;74533.91;;;-140.58;100.00
17309;BME280;8772;42.804;23.426;2023-04-06T05:25:33;74525.69;;;-140.58;100.00
17309;BME280;8772;42.804;23.426;2023-04-06T05:28:00;74527.75;;;-140.58;100.00
17309;BME280;8772;42.804;23.426;2023-04-06T05:30:27;74523.63;;;-140.58;100.00
17309;BME280;8772;42.804;23.426;2023-04-06T05:32:54;74527.75;;;-140.58;100.00
17309;BME280;8772;42.804;23.426;2023-04-06T05:35:21;74515.44;;;-140.58;100.00
17309;BME280;8772;42.804;23.426;2023-04-06T05:37:48;74515.44;;;-140.58;100.00
17309;BME280;8772;42.804;23.426;2023-04-06T05:40:17;74503.13;;;-140.58;100.00
17309;BME280;8772;42.804;23.426;2023-04-06T05:42:44;74501.06;;;-140.58;100.00
17309;BME280;8772;42.804;23.426;2023-04-06T05:45:11;74488.75;;;-140.58;100.00
17309;BME280;8772;42.804;23.426;2023-04-06T05:47:42;74490.81;;;-140.58;100.00
17309;BME280;8772;42.804;23.426;2023-04-06T05:50:09;74466.19;;;-140.58;100.00
17309;BME280;8772;42.804;23.426;2023-04-06T05:52:36;74466.19;;;-140.58;99.96
17309;BME280;8772;42.804;23.426;2023-04-06T05:55:04;74455.94;;;-140.58;97.85
17309;BME280;8772;42.804;23.426;2023-04-06T05:57:32;74457.97;;;-140.58;98.36
17309;BME280;8772;42.804;23.426;2023-04-06T05:59:59;74453.88;;;-140.58;96.54
17309;BME280;8772;42.804;23.426;2023-04-06T06:02:26;74449.78;;;-140.58;96.91
17309;BME280;8772;42.804;23.426;2023-04-06T06:04:53;74457.97;;;-140.58;98.47
17309;BME280;8772;42.804;23.426;2023-04-06T06:07:20;74457.97;;;-140.58;98.79
17309;BME280;8772;42.804;23.426;2023-04-06T06:09:47;74457.97;;;-140.58;98.04
17309;BME280;8772;42.804;23.426;2023-04-06T06:12:14;74464.13;;;-140.58;99.79
17309;BME280;8772;42.804;23.426;2023-04-06T06:14:42;74449.78;;;-140.58;98.08
17309;BME280;8772;42.804;23.426;2023-04-06T06:17:09;74445.66;;;-140.58;98.73
17309;BME280;8772;42.804;23.426;2023-04-06T06:19:36;74437.47;;;-140.58;97.55
17309;BME280;8772;42.804;23.426;2023-04-06T06:22:03;74433.34;;;-140.58;97.45
17309;BME280;8772;42.804;23.426;2023-04-06T06:24:30;74416.94;;;-140.58;98.87
17309;BME280;8772;42.804;23.426;2023-04-06T06:26:57;74419.00;;;-140.58;98.12
17309;BME280;8772;42.804;23.426;2023-04-06T06:29:25;74433.34;;;-140.58;97.10
17309;BME280;8772;42.804;23.426;2023-04-06T06:31:53;74419.00;;;-140.58;95.21
17309;BME280;8772;42.804;23.426;2023-04-06T06:34:20;74431.31;;;-140.58;96.14
17309;BME280;8772;42.804;23.426;2023-04-06T06:36:47;74429.25;;;-140.58;95.71
17309;BME280;8772;42.804;23.426;2023-04-06T06:39:13;74429.25;;;-140.58;97.88
17309;BME280;8772;42.804;23.426;2023-04-06T06:41:40;74416.94;;;-140.58;96.70
17309;BME280;8772;42.804;23.426;2023-04-06T06:44:07;74425.16;;;-140.58;96.66
17309;BME280;8772;42.804;23.426;2023-04-06T06:46:34;74425.16;;;-140.58;95.15
17309;BME280;8772;42.804;23.426;2023-04-06T06:49:02;74421.03;;;-140.58;95.57
17309;BME280;8772;42.804;23.426;2023-04-06T06:51:29;74416.94;;;-140.58;95.78
17309;BME280;8772;42.804;23.426;2023-04-06T06:53:56;74412.84;;;-140.58;96.16
17309;BME280;8772;42.804;23.426;2023-04-06T06:56:23;74406.69;;;-140.58;95.56
17309;BME280;8772;42.804;23.426;2023-04-06T06:58:52;74392.31;;;-140.58;93.75
17309;BME280;8772;42.804;23.426;2023-04-06T07:01:18;74388.22;;;-140.58;92.94
17309;BME280;8772;42.804;23.426;2023-04-06T07:03:45;74392.31;;;-140.58;93.20
17309;BME280;8772;42.804;23.426;2023-04-06T07:06:14;74384.13;;;-140.58;92.94
17309;BME280;8772;42.804;23.426;2023-04-06T07:08:40;74384.13;;;-140.58;93.28
17309;BME280;8772;42.804;23.426;2023-04-06T07:11:07;74377.94;;;-140.58;92.82
17309;BME280;8772;42.804;23.426;2023-04-06T07:13:34;74371.81;;;-140.58;92.25
17309;BME280;8772;42.804;23.426;2023-04-06T07:16:01;74373.84;;;-140.58;92.74
17309;BME280;8772;42.804;23.426;2023-04-06T07:18:28;74375.91;;;-140.58;92.91
17309;BME280;8772;42.804;23.426;2023-04-06T07:20:55;74359.50;;;-140.58;91.98
17309;BME280;8772;42.804;23.426;2023-04-06T07:23:23;74373.84;;;-140.58;91.76
17309;BME280;8772;42.804;23.426;2023-04-06T07:25:50;74377.94;;;-140.58;91.24
17309;BME280;8772;42.804;23.426;2023-04-06T07:28:19;74367.69;;;-140.58;90.95
17309;BME280;8772;42.804;23.426;2023-04-06T07:30:46;74377.94;;;-140.58;91.45
17309;BME280;8772;42.804;23.426;2023-04-06T07:33:13;74359.50;;;-140.58;89.88
17309;BME280;8772;42.804;23.426;2023-04-06T07:35:40;74363.59;;;-140.58;90.33
17309;BME280;8772;42.804;23.426;2023-04-06T07:38:07;74355.38;;;-140.58;89.57
17309;BME280;8772;42.804;23.426;2023-04-06T07:40:35;74347.19;;;-140.58;89.33
17309;BME280;8772;42.804;23.426;2023-04-06T07:43:02;74371.81;;;-140.58;90.60
17309;BME280;8772;42.804;23.426;2023-04-06T07:45:29;74359.50;;;-140.58;90.72
17309;BME280;8772;42.804;23.426;2023-04-06T07:47:56;74355.38;;;-140.58;89.30
17309;BME280;8772;42.804;23.426;2023-04-06T07:50:23;74347.19;;;-140.58;88.90
17309;BME280;8772;42.804;23.426;2023-04-06T07:52:50;74351.28;;;-140.58;90.05
17309;BME280;8772;42.804;23.426;2023-04-06T07:55:17;74345.13;;;-140.58;87.69
17309;BME280;8772;42.804;23.426;2023-04-06T07:57:46;74351.28;;;-140.58;88.93
17309;BME280;8772;42.804;23.426;2023-04-06T08:00:13;74347.19;;;-140.58;88.87
17309;BME280;8772;42.804;23.426;2023-04-06T08:02:41;74332.81;;;-140.58;87.68
17309;BME280;8772;42.804;23.426;2023-04-06T08:05:08;74338.97;;;-140.58;85.93
17309;BME280;8772;42.804;23.426;2023-04-06T08:07:35;74334.88;;;-140.58;85.39
17309;BME280;8772;42.804;23.426;2023-04-06T08:10:02;74330.75;;;-140.58;83.59
17309;BME280;8772;42.804;23.426;2023-04-06T08:12:29;74324.59;;;-140.58;83.67
17309;BME280;8772;42.804;23.426;2023-04-06T08:14:58;74326.66;;;-140.58;82.79
17309;BME280;8772;42.804;23.426;2023-04-06T08:17:25;74347.19;;;-140.58;81.40
17309;BME280;8772;42.804;23.426;2023-04-06T08:19:55;74330.75;;;-140.58;84.04
17309;BME280;8772;42.804;23.426;2023-04-06T08:22:22;74328.72;;;-140.58;83.61
17309;BME280;8772;42.804;23.426;2023-04-06T08:24:50;74306.16;;;-140.58;81.46
17309;BME280;8772;42.804;23.426;2023-04-06T08:27:17;74293.84;;;-140.58;80.83
17309;BME280;8772;42.804;23.426;2023-04-06T08:29:44;74295.88;;;-140.58;84.36
17309;BME280;8772;42.804;23.426;2023-04-06T08:32:12;74273.31;;;-140.58;81.23
17309;BME280;8772;42.804;23.426;2023-04-06T08:34:39;74269.22;;;-140.58;78.74
17309;BME280;8772;42.804;23.426;2023-04-06T08:37:06;74265.09;;;-140.58;79.42
17309;BME280;8772;42.804;23.426;2023-04-06T08:39:33;74261.00;;;-140.58;76.16
17309;BME280;8772;42.804;23.426;2023-04-06T08:42:01;74263.06;;;-140.58;76.35
17309;BME280;8772;42.804;23.426;2023-04-06T08:44:29;74240.50;;;-140.58;79.85
17309;BME280;8772;42.804;23.426;2023-04-06T08:46:56;74234.34;;;-140.58;79.92
17309;BME280;8772;42.804;23.426;2023-04-06T08:49:25;74222.03;;;-140.58;75.98
17309;BME280;8772;42.804;23.426;2023-04-06T08:51:53;74211.75;;;-140.58;76.95
17309;BME280;8772;42.804;23.426;2023-04-06T08:54:22;74207.66;;;-140.58;76.34
17309;BME280;8772;42.804;23.426;2023-04-06T08:56:50;74195.34;;;-140.58;75.65
17309;BME280;8772;42.804;23.426;2023-04-06T08:59:17;74203.56;;;-140.58;74.69
17309;BME280;8772;42.804;23.426;2023-04-06T09:01:44;74199.47;;;-140.58;72.45
17309;BME280;8772;42.804;23.426;2023-04-06T09:04:12;74209.72;;;-140.58;74.21
17309;BME280;8772;42.804;23.426;2023-04-06T09:06:40;74211.75;;;-140.58;73.90
17309;BME280;8772;42.804;23.426;2023-04-06T09:09:07;74215.88;;;-140.58;76.43
17309;BME280;8772;42.804;23.426;2023-04-06T09:11:44;74199.47;;;-140.58;75.60
17309;BME280;8772;42.804;23.426;2023-04-06T09:14:12;74195.34;;;-140.58;74.38
17309;BME280;8772;42.804;23.426;2023-04-06T09:16:39;74189.19;;;-140.58;73.60
17309;BME280;8772;42.804;23.426;2023-04-06T09:19:07;74187.16;;;-140.58;72.94
17309;BME280;8772;42.804;23.426;2023-04-06T09:21:34;74205.59;;;-140.58;72.19
17309;BME280;8772;42.804;23.426;2023-04-06T09:24:04;74195.34;;;-140.58;72.71
17309;BME280;8772;42.804;23.426;2023-04-06T09:26:31;74195.34;;;-140.58;72.49
17309;BME280;8772;42.804;23.426;2023-04-06T09:28:59;74207.66;;;-140.58;73.96
17309;BME280;8772;42.804;23.426;2023-04-06T09:31:28;74178.94;;;-140.58;72.75
17309;BME280;8772;42.804;23.426;2023-04-06T09:33:56;74189.19;;;-140.58;74.11
17309;BME280;8772;42.804;23.426;2023-04-06T09:36:33;74164.56;;;-140.58;71.91
17309;BME280;8772;42.804;23.426;2023-04-06T09:39:01;74166.63;;;-140.58;72.89
17309;BME280;8772;42.804;23.426;2023-04-06T09:41:30;74156.38;;;-140.58;70.95
17309;BME280;8772;42.804;23.426;2023-04-06T09:44:05;74181.00;;;-140.58;71.90
17309;BME280;8772;42.804;23.426;2023-04-06T09:46:33;74178.94;;;-140.58;73.77
17309;BME280;8772;42.804;23.426;2023-04-06T09:49:02;74172.78;;;-140.58;71.67
17309;BME280;8772;42.804;23.426;2023-04-06T09:51:31;74178.94;;;-140.58;71.27
17309;BME280;8772;42.804;23.426;2023-04-06T09:53:59;74162.53;;;-140.58;71.80
17309;BME280;8772;42.804;23.426;2023-04-06T09:56:34;74158.41;;;-140.58;74.35
17309;BME280;8772;42.804;23.426;2023-04-06T09:59:08;74144.06;;;-140.58;73.46
17309;BME280;8772;42.804;23.426;2023-04-06T10:01:39;74137.91;;;-140.58;71.51
17309;BME280;8772;42.804;23.426;2023-04-06T10:04:17;74150.22;;;-140.58;69.52
17309;BME280;8772;42.804;23.426;2023-04-06T10:06:46;74135.84;;;-140.58;70.67
17309;BME280;8772;42.804;23.426;2023-04-06T10:09:18;74127.66;;;-140.58;69.41
17309;BME280;8772;42.804;23.426;2023-04-06T10:11:47;74121.50;;;-140.58;68.64
17309;BME280;8772;42.804;23.426;2023-04-06T10:14:15;74121.50;;;-140.58;68.30
17309;BME280;8772;42.804;23.426;2023-04-06T10:16:42;74146.09;;;-140.58;68.86
17309;BME280;8772;42.804;23.426;2023-04-06T10:19:13;74109.19;;;-140.58;69.07
17309;BME280;8772;42.804;23.426;2023-04-06T10:21:44;74096.88;;;-140.58;68.93
17309;BME280;8772;42.804;23.426;2023-04-06T10:24:14;74084.56;;;-140.58;68.23
17309;BME280;8772;42.804;23.426;2023-04-06T10:26:42;74066.09;;;-140.58;67.92
17309;BME280;8772;42.804;23.426;2023-04-06T10:29:10;74053.78;;;-140.58;65.51
17309;BME280;8772;42.804;23.426;2023-04-06T10:31:41;74055.84;;;-140.58;66.80
17309;BME280;8772;42.804;23.426;2023-04-06T10:34:09;74047.63;;;-140.58;66.71
17309;BME280;8772;42.804;23.426;2023-04-06T10:36:36;74016.84;;;-140.58;68.30
17309;BME280;8772;42.804;23.426;2023-04-06T10:39:04;74006.59;;;-140.58;66.84
17309;BME280;8772;42.804;23.426;2023-04-06T10:41:33;73973.78;;;-140.58;66.61
17309;BME280;8772;42.804;23.426;2023-04-06T10:44:00;73953.25;;;-140.58;66.67
17309;BME280;8772;42.804;23.426;2023-04-06T10:46:30;73928.66;;;-140.58;62.15
17309;BME280;8772;42.804;23.426;2023-04-06T10:48:57;73899.91;;;-140.58;62.69
17309;BME280;8772;42.804;23.426;2023-04-06T10:51:26;73887.63;;;-140.58;61.97
17309;BME280;8772;42.804;23.426;2023-04-06T10:53:54;73883.50;;;-140.58;62.02
17309;BME280;8772;42.804;23.426;2023-04-06T10:56:24;73858.91;;;-140.58;62.81
17309;BME280;8772;42.804;23.426;2023-04-06T10:58:54;73834.28;;;-140.58;58.50
17309;BME280;8772;42.804;23.426;2023-04-06T11:01:23;73830.16;;;-140.58;58.52
17309;BME280;8772;42.804;23.426;2023-04-06T11:03:53;73819.91;;;-140.58;54.07
17309;BME280;8772;42.804;23.426;2023-04-06T11:06:21;73797.34;;;-140.58;54.34
17309;BME280;8772;42.804;23.426;2023-04-06T11:08:48;73789.16;;;-140.58;54.50
17309;BME280;8772;42.804;23.426;2023-04-06T11:11:17;73754.28;;;-140.58;53.61
17309;BME280;8772;42.804;23.426;2023-04-06T11:13:45;73739.91;;;-140.58;53.06
17309;BME280;8772;42.804;23.426;2023-04-06T11:16:14;73739.91;;;-140.58;52.61
17309;BME280;8772;42.804;23.426;2023-04-06T11:18:49;73709.13;;;-140.58;50.64
17309;BME280;8772;42.804;23.426;2023-04-06T11:21:17;73696.81;;;-140.58;49.48
17309;BME280;8772;42.804;23.426;2023-04-06T11:23:44;73682.47;;;-140.58;49.52
17309;BME280;8772;42.804;23.426;2023-04-06T11:26:11;73645.53;;;-140.58;48.33
17309;BME280;8772;42.804;23.426;2023-04-06T11:28:40;73612.72;;;-140.58;48.76
17309;BME280;8772;42.804;23.426;2023-04-06T11:31:07;73598.38;;;-140.58;47.81
17309;BME280;8772;42.804;23.426;2023-04-06T11:33:36;73584.00;;;-140.58;47.53
17309;BME280;8772;42.804;23.426;2023-04-06T11:36:04;73584.00;;;-140.58;47.77
17309;BME280;8772;42.804;23.426;2023-04-06T11:38:33;73542.97;;;-140.58;45.98
17309;BME280;8772;42.804;23.426;2023-04-06T11:41:01;73526.56;;;-140.58;47.25
17309;BME280;8772;42.804;23.426;2023-04-06T11:43:29;73495.81;;;-140.58;46.06
17309;BME280;8772;42.804;23.426;2023-04-06T11:46:00;73471.19;;;-140.58;45.68
17309;BME280;8772;42.804;23.426;2023-04-06T11:48:28;73489.66;;;-140.58;45.31
17309;BME280;8772;42.804;23.426;2023-04-06T11:50:55;73465.03;;;-140.58;45.18
17309;BME280;8772;42.804;23.426;2023-04-06T11:53:23;73542.97;;;-140.58;43.97
17309;BME280;8772;42.804;23.426;2023-04-06T11:55:51;73528.63;;;-140.58;44.07
17309;BME280;8772;42.804;23.426;2023-04-06T11:58:18;73493.75;;;-140.58;45.17
17309;BME280;8772;42.804;23.426;2023-04-06T12:00:45;73483.50;;;-140.58;43.04
17309;BME280;8772;42.804;23.426;2023-04-06T12:03:12;73481.44;;;-140.58;43.47
17309;BME280;8772;42.804;23.426;2023-04-06T12:05:39;73462.97;;;-140.58;45.35
17309;BME280;8772;42.804;23.426;2023-04-06T12:08:06;73497.84;;;-140.58;41.85
17309;BME280;8772;42.804;23.426;2023-04-06T12:10:33;73497.84;;;-140.58;44.69
17309;BME280;8772;42.804;23.426;2023-04-06T12:13:01;73512.22;;;-140.58;43.21
17309;BME280;8772;42.804;23.426;2023-04-06T12:15:28;73499.91;;;-140.58;43.60
17309;BME280;8772;42.804;23.426;2023-04-06T12:17:55;73485.53;;;-140.58;41.72
17309;BME280;8772;42.804;23.426;2023-04-06T12:20:22;73499.91;;;-140.58;43.23
17309;BME280;8772;42.804;23.426;2023-04-06T12:22:49;73534.78;;;-140.58;42.44
17309;BME280;8772;42.804;23.426;2023-04-06T12:25:16;73524.53;;;-140.58;41.97
17309;BME280;8772;42.804;23.426;2023-04-06T12:27:43;73522.47;;;-140.58;43.99
17309;BME280;8772;42.804;23.426;2023-04-06T12:30:12;73530.66;;;-140.58;43.34
17309;BME280;8772;42.804;23.426;2023-04-06T12:32:39;73518.38;;;-140.58;44.19
17309;BME280;8772;42.804;23.426;2023-04-06T12:35:06;73497.84;;;-140.58;43.24
17309;BME280;8772;42.804;23.426;2023-04-06T12:37:34;73526.56;;;-140.58;42.51
17309;BME280;8772;42.804;23.426;2023-04-06T12:40:02;73508.09;;;-140.58;43.09